NCAR-RAP Real-Time Weather Data

Output produced by METARs form (21 May 2019  11:23 UTC)
found at http://weather.rap.ucar.edu/surface/
 
RJSC 211000Z 01004KT 9999 FEW010 SCT020 BKN040 17/13 Q1004
RJSC 210900Z 02007KT 340V040 9999 FEW010 SCT020 BKN040 17/13 Q1004
RJSC 210800Z VRB06KT 9999 FEW005 SCT020 BKN040 16/13 Q1004
RJSC 210700Z 01013KT 9999 FEW005 SCT020 BKN040 16/13 Q1003
RJSC 210600Z 01018KT 9999 -SHRA FEW002 SCT010 BKN040 15/12 Q1003
RJSC 210500Z 35007KT 330V030 9999 -SHRA FEW002 SCT010 BKN050 19/19 Q1002
RJSC 210400Z 07003KT 040V120 9999 -SHRA FEW002 SCT010 BKN060 19/18 Q1002
RJSC 210312Z 04005KT 020V090 5000 -SHRA BR FEW002 SCT008 BKN010 18/18 Q1002 RMK 2ST002 4ST008 7ST010 A2961
RJSC 210300Z 36004KT 340V050 3000 SHRA BR FEW002 SCT007 BKN008 18/18 Q1003
RJSC 210236Z 34003KT 3000 R01/2000N SHRA BR FEW002 SCT007 BKN008 18/18 Q1003 RMK 2ST002 4ST007 7ST008 A2963
RJSC 210200Z VRB02KT 3000 SHRA BR FEW002 SCT010 BKN015 18/18 Q1003
RJSC 210100Z VRB01KT 8000 -SHRA FEW003 SCT030 BKN040 18/17 Q1002
RJSC 210000Z 00000KT 8000 -SHRA FEW003 SCT030 BKN040 18/17 Q1002
RJSC 202300Z VRB02KT 9999 -SHRA FEW003 SCT030 BKN050 18/17 Q1002
RJSC 202240Z VRB01KT 9999 -SHRA FEW003 SCT030 BKN050 18/17 Q1002 RMK 1ST003 3CU030 7CU050 A2961
RJSC 201000Z 14009KT 9999 FEW030 SCT060 BKN150 21/12 Q1009
RJSC 200900Z 12011KT 9999 FEW030 SCT100 BKN/// 21/14 Q1010
RJSC 200800Z 12014KT 9999 FEW040 BKN/// 24/13 Q1009
RJSC 200700Z 13014KT 9999 FEW040 BKN/// 25/12 Q1009
RJSC 200600Z 13017KT 9999 FEW040 BKN/// 26/11 Q1009
RJSC 200500Z 17016KT 130V200 9999 FEW040 SCT/// 27/12 Q1010
RJSC 200400Z 13019KT 9999 FEW030 SCT050 BKN/// 26/11 Q1011
RJSC 200300Z 13017KT 9999 FEW030 SCT050 BKN/// 26/11 Q1012
RJSC 200200Z 14014KT 9999 FEW030 SCT050 BKN/// 25/12 Q1013
RJSC 200100Z 17011KT 130V200 9999 FEW030 SCT050 BKN/// 24/12 Q1013
RJSC 200000Z 14009KT 9999 FEW030 SCT050 BKN/// 22/13 Q1014
RJSC 192300Z VRB02KT 9999 FEW030 BKN/// 20/12 Q1015
RJSC 192240Z 31003KT 270V360 9999 FEW030 BKN/// 19/12 Q1015 RMK 1CU030 A2999
RJSC 191000Z 11008KT 9999 FEW020 BKN/// 20/14 Q1019
RJSC 190900Z 12010KT 080V140 9999 FEW020 SCT/// 21/13 Q1018
RJSC 190800Z 11014KT 080V140 9999 FEW030 SCT/// 23/14 Q1017
RJSC 190700Z 12013KT 090V150 9999 FEW060 24/13 Q1018
RJSC 190600Z 12014KT 090V150 9999 FEW060 25/13 Q1018
RJSC 190500Z 10015KT 9999 FEW040 SCT060 25/13 Q1018
RJSC 190400Z 11010KT 060V150 9999 FEW040 SCT/// 24/12 Q1019
RJSC 190300Z 08010KT 9999 FEW050 SCT/// 24/11 Q1020
RJSC 190200Z 27004KT 170V330 9999 FEW040 SCT/// 23/14 Q1021
RJSC 190100Z 14003KT 070V230 9999 FEW040 BKN/// 21/12 Q1022
RJSC 190000Z VRB01KT 9999 FEW040 SCT170 BKN/// 20/13 Q1022